Time;durP1;ratioP1;P1;durP2;ratioP2;P2;SDS_P1;SDS_P2;PMS_P1;PMS_P2;Temp;Humidity;BMP_temperature;BMP_pressure;BME280_temperature;BME280_humidity;BME280_pressure;Samples;Min_cycle;Max_cycle;Signal;HPM_P1;HPM_P2
2022/04/09 00:02:22;;;;;;;2.40;2.30;;;3.10;1.00;;;;;;5033456;28;20227;-66
2022/04/09 00:04:48;;;;;;;2.53;2.10;;;3.10;1.00;;;;;;5032572;28;20285;-65
2022/04/09 00:07:14;;;;;;;8.17;3.87;;;3.10;1.00;;;;;;5033538;28;20179;-66
2022/04/09 00:09:40;;;;;;;4.10;2.53;;;3.10;1.00;;;;;;5032746;28;20187;-68
2022/04/09 00:12:06;;;;;;;2.23;2.13;;;3.10;1.00;;;;;;5033354;28;20418;-66
2022/04/09 00:14:31;;;;;;;7.23;2.40;;;3.10;1.00;;;;;;5033372;28;20175;-66
2022/04/09 00:16:57;;;;;;;2.90;2.57;;;3.10;1.00;;;;;;5032127;28;20406;-66
2022/04/09 00:19:23;;;;;;;1.80;1.60;;;3.00;1.00;;;;;;5031377;28;20706;-66
2022/04/09 00:21:48;;;;;;;2.60;1.83;;;3.00;1.00;;;;;;5033260;28;20191;-66
2022/04/09 00:24:14;;;;;;;3.47;2.73;;;3.00;1.00;;;;;;5033216;28;20195;-68
2022/04/09 00:26:40;;;;;;;2.67;2.47;;;3.00;1.00;;;;;;5031935;28;20167;-68
2022/04/09 00:29:06;;;;;;;3.63;2.37;;;3.00;1.00;;;;;;5032683;28;20490;-65
2022/04/09 00:31:32;;;;;;;5.40;3.00;;;3.10;1.00;;;;;;5033199;28;20548;-68
2022/04/09 00:33:59;;;;;;;3.87;2.80;;;3.00;1.00;;;;;;5033416;28;20222;-65
2022/04/09 00:36:24;;;;;;;5.63;3.07;;;3.00;1.00;;;;;;5033035;28;20403;-69
2022/04/09 00:38:50;;;;;;;2.73;2.53;;;3.00;1.00;;;;;;5032515;28;20737;-66
2022/04/09 00:41:16;;;;;;;4.03;2.10;;;3.00;1.00;;;;;;5033406;28;20625;-66
2022/04/09 00:43:42;;;;;;;8.83;3.17;;;3.00;1.00;;;;;;5033296;28;20175;-65
2022/04/09 00:46:11;;;;;;;4.30;2.13;;;3.00;1.00;;;;;;5033242;28;20211;-65
2022/04/09 00:48:37;;;;;;;4.10;2.57;;;3.00;1.00;;;;;;5032484;28;20414;-68
2022/04/09 00:51:03;;;;;;;2.50;2.40;;;3.00;1.00;;;;;;5033088;28;20807;-66
2022/04/09 00:53:39;;;;;;;6.20;2.53;;;3.00;1.00;;;;;;5032957;28;20580;-65
2022/04/09 00:56:15;;;;;;;2.40;2.30;;;3.00;1.00;;;;;;5033138;28;20400;-66
2022/04/09 00:58:50;;;;;;;4.87;2.50;;;3.00;1.00;;;;;;5035133;28;20755;-68
2022/04/09 01:01:18;;;;;;;3.93;3.13;;;2.90;1.00;;;;;;5036903;28;20767;-66
2022/04/09 01:03:44;;;;;;;4.33;2.23;;;3.00;1.00;;;;;;5036841;28;20433;-66
2022/04/09 01:06:12;;;;;;;3.43;2.70;;;2.90;1.00;;;;;;5036773;28;20398;-66
2022/04/09 01:08:37;;;;;;;7.27;3.87;;;2.90;1.00;;;;;;5035858;28;20410;-68
2022/04/09 01:11:03;;;;;;;4.40;2.80;;;2.90;1.00;;;;;;5036628;28;20504;-66
2022/04/09 01:13:29;;;;;;;3.20;2.50;;;2.90;1.00;;;;;;5036589;28;20191;-65
2022/04/09 01:15:55;;;;;;;5.80;2.80;;;2.90;1.00;;;;;;5036590;28;20164;-65
2022/04/09 01:18:21;;;;;;;6.77;2.73;;;2.90;1.00;;;;;;5036374;28;20941;-74
2022/04/09 01:20:46;;;;;;;5.40;2.80;;;2.80;1.00;;;;;;5035830;28;20255;-66
2022/04/09 01:23:12;;;;;;;3.63;2.43;;;2.90;1.00;;;;;;5036317;28;20426;-65
2022/04/09 01:25:38;;;;;;;7.10;4.33;;;2.80;1.00;;;;;;5036647;28;20603;-69
2022/04/09 01:28:04;;;;;;;6.47;3.03;;;2.90;1.00;;;;;;5036375;28;20182;-69
2022/04/09 01:30:30;;;;;;;3.57;1.90;;;2.90;1.00;;;;;;5035612;28;20201;-65
2022/04/09 01:32:55;;;;;;;8.13;2.60;;;3.00;1.00;;;;;;5035989;28;20418;-68
2022/04/09 01:35:21;;;;;;;9.83;3.33;;;3.00;1.00;;;;;;5036216;28;20225;-65
2022/04/09 01:37:47;;;;;;;13.30;7.67;;;2.90;1.00;;;;;;5036260;28;20216;-68
2022/04/09 01:40:13;;;;;;;3.93;3.57;;;2.90;1.00;;;;;;5035699;28;20198;-68
2022/04/09 01:42:39;;;;;;;9.50;3.13;;;2.80;1.00;;;;;;5036127;28;20820;-69
2022/04/09 01:45:06;;;;;;;13.73;3.10;;;2.90;1.00;;;;;;5036055;28;20406;-66
2022/04/09 01:47:32;;;;;;;5.77;3.17;;;2.90;1.00;;;;;;5036158;28;20186;-65
2022/04/09 01:49:58;;;;;;;5.90;3.10;;;2.90;1.00;;;;;;5035378;28;20990;-68
2022/04/09 01:52:23;;;;;;;8.10;3.13;;;3.00;1.00;;;;;;5035965;28;20429;-65
2022/04/09 01:54:49;;;;;;;2.83;2.60;;;2.90;1.00;;;;;;5034675;28;20180;-69
2022/04/09 01:57:15;;;;;;;3.50;3.00;;;2.90;1.00;;;;;;5035821;28;20187;-69
2022/04/09 01:59:43;;;;;;;5.80;3.07;;;2.90;1.00;;;;;;5035225;28;20160;-65
2022/04/09 02:02:09;;;;;;;3.23;2.93;;;2.90;1.00;;;;;;5035808;28;20450;-69
2022/04/09 02:04:34;;;;;;;4.23;2.73;;;2.90;1.00;;;;;;5035777;28;20390;-66
2022/04/09 02:07:00;;;;;;;7.90;2.87;;;2.80;1.00;;;;;;5035639;28;20756;-66
2022/04/09 02:09:26;;;;;;;4.07;2.30;;;2.80;1.00;;;;;;5033785;28;20652;-68
2022/04/09 02:11:52;;;;;;;3.73;2.30;;;2.80;1.00;;;;;;5035369;28;20203;-66
2022/04/09 02:14:17;;;;;;;4.63;2.40;;;2.80;1.00;;;;;;5035373;28;20203;-66
2022/04/09 02:16:43;;;;;;;5.33;3.10;;;2.80;1.00;;;;;;5035236;28;20395;-66
2022/04/09 02:19:10;;;;;;;20.53;3.43;;;2.90;1.00;;;;;;5034577;28;20167;-66
2022/04/09 02:21:36;;;;;;;10.20;2.67;;;2.90;1.00;;;;;;5035235;28;20190;-68
2022/04/09 02:24:02;;;;;;;4.47;3.23;;;2.90;1.00;;;;;;5035678;28;20402;-68
2022/04/09 02:26:27;;;;;;;8.27;3.40;;;2.90;1.00;;;;;;5035275;28;20399;-66
2022/04/09 02:28:53;;;;;;;11.40;3.30;;;3.00;1.00;;;;;;5033608;28;20525;-69
2022/04/09 02:31:20;;;;;;;2.80;2.60;;;2.90;1.00;;;;;;5034874;28;20816;-66
2022/04/09 02:33:46;;;;;;;11.67;3.17;;;2.90;1.00;;;;;;5035081;28;20164;-69
2022/04/09 02:36:13;;;;;;;8.23;3.70;;;2.80;1.00;;;;;;5035148;28;20399;-65
2022/04/09 02:38:39;;;;;;;2.90;2.70;;;2.90;1.00;;;;;;5034497;28;20402;-69
2022/04/09 02:41:06;;;;;;;12.67;3.70;;;2.80;1.00;;;;;;5033610;28;20931;-66
2022/04/09 02:43:32;;;;;;;12.90;5.80;;;2.80;1.00;;;;;;5035037;28;20410;-67
2022/04/09 02:45:58;;;;;;;12.23;3.40;;;2.80;1.00;;;;;;5035012;28;20410;-69
2022/04/09 02:48:24;;;;;;;3.53;2.87;;;2.90;1.00;;;;;;5034987;28;20407;-66
2022/04/09 02:50:49;;;;;;;11.60;3.97;;;2.90;1.00;;;;;;5034240;28;20192;-68
2022/04/09 02:53:15;;;;;;;4.07;2.73;;;2.90;1.00;;;;;;5034745;28;20188;-66
2022/04/09 02:55:41;;;;;;;3.03;2.23;;;2.90;1.00;;;;;;5034712;28;20507;-69
2022/04/09 02:58:06;;;;;;;4.87;3.33;;;3.00;1.00;;;;;;5034726;28;20164;-66
2022/04/09 03:00:33;;;;;;;13.47;3.57;;;2.90;1.00;;;;;;5033947;28;20405;-68
2022/04/09 03:02:58;;;;;;;3.03;2.83;;;2.90;1.00;;;;;;5034487;28;20187;-69
2022/04/09 03:05:24;;;;;;;10.93;3.57;;;2.90;1.00;;;;;;5034471;28;20414;-69
2022/04/09 03:07:50;;;;;;;9.63;2.70;;;3.00;1.00;;;;;;5034410;28;20199;-66
2022/04/09 03:10:15;;;;;;;2.93;2.70;;;3.00;1.00;;;;;;5033725;28;20676;-69
2022/04/09 03:12:48;;;;;;;4.03;2.80;;;2.90;1.00;;;;;;5034171;28;20191;-69
2022/04/09 03:15:14;;;;;;;4.83;3.20;;;2.80;1.00;;;;;;5034354;28;20160;-69
2022/04/09 03:17:41;;;;;;;8.57;3.90;;;2.80;1.00;;;;;;5034189;28;20437;-68
2022/04/09 03:20:07;;;;;;;5.87;3.80;;;2.80;1.00;;;;;;5033423;28;20493;-65
2022/04/09 03:22:33;;;;;;;4.90;3.03;;;2.80;1.00;;;;;;5034176;28;20449;-65
2022/04/09 03:25:03;;;;;;;7.00;2.63;;;2.80;1.00;;;;;;5034156;28;20410;-65
2022/04/09 03:27:29;;;;;;;12.50;3.93;;;2.80;1.00;;;;;;5034051;28;20167;-66
2022/04/09 03:29:55;;;;;;;12.93;4.03;;;2.80;1.00;;;;;;5033212;28;20446;-69
2022/04/09 03:32:21;;;;;;;15.23;4.77;;;2.80;1.00;;;;;;5034236;28;20757;-69
2022/04/09 03:34:48;;;;;;;6.60;3.43;;;2.90;1.00;;;;;;5033934;28;20207;-68
2022/04/09 03:37:14;;;;;;;3.37;2.93;;;2.90;1.00;;;;;;5034102;28;20399;-69
2022/04/09 03:39:41;;;;;;;12.20;3.23;;;2.90;1.00;;;;;;5033157;28;20413;-69
2022/04/09 03:42:07;;;;;;;3.73;2.80;;;2.90;1.00;;;;;;5033652;28;20211;-66
2022/04/09 03:44:33;;;;;;;9.53;3.40;;;2.80;1.00;;;;;;5034197;28;20395;-68
2022/04/09 03:47:00;;;;;;;3.03;2.80;;;2.80;1.00;;;;;;5034029;28;20169;-68
2022/04/09 03:49:25;;;;;;;5.13;2.90;;;2.80;1.00;;;;;;5033114;28;20394;-66
2022/04/09 03:51:51;;;;;;;8.43;3.40;;;2.80;1.00;;;;;;5033661;28;20978;-66
2022/04/09 03:54:17;;;;;;;6.67;2.90;;;2.90;1.00;;;;;;5033538;28;20174;-67
2022/04/09 03:56:43;;;;;;;12.13;3.07;;;3.00;1.00;;;;;;5034056;28;20678;-67
2022/04/09 03:59:09;;;;;;;9.30;2.90;;;3.00;1.00;;;;;;5032915;28;20164;-69
2022/04/09 04:01:35;;;;;;;3.80;2.57;;;3.10;1.00;;;;;;5032168;28;20423;-65
2022/04/09 04:04:01;;;;;;;12.33;2.60;;;3.10;1.00;;;;;;5032243;28;20795;-69
2022/04/09 04:06:27;;;;;;;5.37;2.37;;;3.10;1.00;;;;;;5033508;28;20421;-69
2022/04/09 04:08:55;;;;;;;6.03;2.57;;;3.20;1.00;;;;;;5032889;28;20505;-66
2022/04/09 04:11:21;;;;;;;5.73;2.50;;;3.30;1.00;;;;;;5033269;28;20179;-66
2022/04/09 04:13:48;;;;;;;15.20;4.20;;;3.20;1.00;;;;;;5033391;28;20413;-65
2022/04/09 04:16:13;;;;;;;6.40;2.87;;;3.30;1.00;;;;;;5033242;28;20398;-66
2022/04/09 04:18:39;;;;;;;7.03;2.53;;;3.30;1.00;;;;;;5032960;28;20440;-68
2022/04/09 04:21:05;;;;;;;5.23;2.73;;;3.30;1.00;;;;;;5033354;28;20167;-68
2022/04/09 04:23:30;;;;;;;6.67;3.00;;;3.40;1.00;;;;;;5033316;28;20206;-66
2022/04/09 04:25:56;;;;;;;7.00;2.63;;;3.40;1.00;;;;;;5032275;28;20179;-68
2022/04/09 04:28:21;;;;;;;6.63;2.70;;;3.40;1.00;;;;;;5033028;28;20171;-68
2022/04/09 04:30:47;;;;;;;7.57;3.67;;;3.40;1.00;;;;;;5032585;28;20253;-66
2022/04/09 04:33:13;;;;;;;4.80;2.53;;;3.40;1.00;;;;;;5035301;28;20191;-69
2022/04/09 04:35:38;;;;;;;2.43;2.23;;;3.30;1.00;;;;;;5037372;28;20637;-66
2022/04/09 04:38:04;;;;;;;6.17;2.00;;;3.20;1.00;;;;;;5037131;28;20199;-69
2022/04/09 04:40:30;;;;;;;3.20;1.83;;;3.20;1.00;;;;;;5036370;28;20175;-66
2022/04/09 04:42:55;;;;;;;3.83;2.47;;;3.10;1.00;;;;;;5037131;28;20191;-66
2022/04/09 04:45:22;;;;;;;4.13;2.33;;;3.00;1.00;;;;;;5037353;28;20171;-66
2022/04/09 04:47:48;;;;;;;3.83;2.03;;;3.00;1.00;;;;;;5037127;28;20648;-69
2022/04/09 04:50:16;;;;;;;10.23;2.27;;;3.00;1.00;;;;;;5036451;28;20448;-66
2022/04/09 04:52:42;;;;;;;3.27;2.43;;;3.10;1.00;;;;;;5037009;28;20850;-66
2022/04/09 04:55:09;;;;;;;10.07;2.90;;;3.00;1.00;;;;;;5037342;28;20390;-66
2022/04/09 04:57:50;;;;;;;11.87;3.07;;;3.00;1.00;;;;;;5037107;28;20425;-68
2022/04/09 05:00:20;;;;;;;3.77;2.13;;;2.90;1.00;;;;;;5036219;28;20481;-68
2022/04/09 05:02:46;;;;;;;6.20;2.50;;;2.90;1.00;;;;;;5036775;28;20945;-66
2022/04/09 05:05:12;;;;;;;3.40;2.00;;;2.80;1.00;;;;;;5036813;28;20406;-69
2022/04/09 05:07:42;;;;;;;17.70;2.67;;;2.80;1.00;;;;;;5036829;28;20174;-66
2022/04/09 05:10:10;;;;;;;2.60;2.37;;;2.90;1.00;;;;;;5036047;28;20226;-68
2022/04/09 05:12:36;;;;;;;1.90;1.80;;;2.90;1.00;;;;;;5036537;28;20911;-68
2022/04/09 05:15:06;;;;;;;2.00;1.90;;;2.90;1.00;;;;;;5036646;28;20402;-66
2022/04/09 05:17:32;;;;;;;1.80;1.50;;;3.00;1.00;;;;;;5036689;28;20172;-68
2022/04/09 05:19:58;;;;;;;2.13;1.80;;;3.00;1.00;;;;;;5035885;28;20421;-69
2022/04/09 05:22:27;;;;;;;2.40;1.80;;;3.00;1.00;;;;;;5036395;28;20187;-66
2022/04/09 05:24:53;;;;;;;2.90;1.90;;;3.00;1.00;;;;;;5036371;28;20410;-68
2022/04/09 05:27:19;;;;;;;2.20;2.10;;;2.90;1.00;;;;;;5036425;28;20421;-66
2022/04/09 05:29:44;;;;;;;1.63;1.53;;;3.00;1.00;;;;;;5035670;28;20402;-68
2022/04/09 05:32:10;;;;;;;2.67;2.47;;;2.90;1.00;;;;;;5036281;28;20660;-68
2022/04/09 05:34:35;;;;;;;2.10;2.00;;;2.90;1.00;;;;;;5036183;28;20170;-69
2022/04/09 05:37:01;;;;;;;2.10;1.70;;;2.90;1.00;;;;;;5036136;28;20214;-68
2022/04/09 05:39:27;;;;;;;3.63;1.60;;;3.00;1.00;;;;;;5035498;28;20171;-66
2022/04/09 05:41:52;;;;;;;2.00;1.80;;;2.90;1.00;;;;;;5036115;28;20508;-68
2022/04/09 05:44:18;;;;;;;1.90;1.77;;;3.00;1.00;;;;;;5034759;28;20262;-69
2022/04/09 05:46:44;;;;;;;3.67;2.03;;;3.10;1.00;;;;;;5036012;28;20174;-69
2022/04/09 05:49:09;;;;;;;2.00;1.80;;;3.10;1.00;;;;;;5034194;28;20225;-68
2022/04/09 05:51:36;;;;;;;2.07;1.87;;;3.20;1.00;;;;;;5035971;28;20200;-69
2022/04/09 05:54:05;;;;;;;1.83;1.73;;;3.10;1.00;;;;;;5035977;28;20247;-69
2022/04/09 05:56:31;;;;;;;1.53;1.43;;;3.20;1.00;;;;;;5036103;28;20398;-66
2022/04/09 05:58:56;;;;;;;1.77;1.67;;;3.20;1.00;;;;;;5035164;28;20448;-68
2022/04/09 06:01:22;;;;;;;1.77;1.67;;;3.20;1.00;;;;;;5035721;28;20176;-69
2022/04/09 06:03:48;;;;;;;4.00;1.70;;;3.30;1.00;;;;;;5035927;28;20172;-68
2022/04/09 06:06:13;;;;;;;1.90;1.80;;;3.30;1.00;;;;;;5035756;28;20902;-70
2022/04/09 06:08:39;;;;;;;4.77;2.40;;;3.40;1.00;;;;;;5035042;28;20498;-71
2022/04/09 06:11:05;;;;;;;1.70;1.60;;;3.60;1.00;;;;;;5035288;28;20568;-71
2022/04/09 06:13:31;;;;;;;2.30;1.40;;;3.80;1.00;;;;;;5035073;28;20545;-66
2022/04/09 06:15:57;;;;;;;2.27;1.97;;;3.90;1.00;;;;;;5035586;28;20251;-69
2022/04/09 06:18:23;;;;;;;11.20;3.30;;;4.00;1.00;;;;;;5035450;28;20497;-67
2022/04/09 06:20:49;;;;;;;5.80;1.77;;;4.00;1.00;;;;;;5034824;28;20401;-66
2022/04/09 06:23:14;;;;;;;4.60;2.10;;;4.00;1.00;;;;;;5035226;28;20241;-69
2022/04/09 06:25:40;;;;;;;2.90;1.63;;;4.10;1.00;;;;;;5035323;28;20167;-67
2022/04/09 06:28:08;;;;;;;3.20;2.20;;;4.20;1.00;;;;;;5034262;28;20667;-64
2022/04/09 06:30:33;;;;;;;3.13;2.73;;;4.30;1.00;;;;;;5034444;28;20465;-65
2022/04/09 06:32:59;;;;;;;5.10;2.37;;;4.50;1.00;;;;;;5035108;28;20907;-64
2022/04/09 06:35:26;;;;;;;2.20;1.90;;;4.60;1.00;;;;;;5035014;28;20558;-66
2022/04/09 06:37:51;;;;;;;2.80;2.23;;;4.70;1.00;;;;;;5035213;28;20870;-64
2022/04/09 06:40:17;;;;;;;2.30;1.90;;;4.70;1.00;;;;;;5034362;28;20434;-66
2022/04/09 06:42:43;;;;;;;3.80;2.07;;;4.70;1.00;;;;;;5034876;28;20196;-67
2022/04/09 06:45:09;;;;;;;4.13;1.90;;;4.70;1.00;;;;;;5034750;28;20182;-67
2022/04/09 06:47:39;;;;;;;1.90;1.80;;;4.50;1.00;;;;;;5034837;28;20402;-64
2022/04/09 06:50:09;;;;;;;1.67;1.53;;;4.50;1.00;;;;;;5034062;28;20464;-64
2022/04/09 06:52:35;;;;;;;6.63;2.23;;;4.60;1.00;;;;;;5034818;28;20438;-64
2022/04/09 06:55:02;;;;;;;1.97;1.83;;;4.60;1.00;;;;;;5034535;28;20399;-65
2022/04/09 06:57:28;;;;;;;2.27;2.07;;;4.60;1.00;;;;;;5034737;28;20406;-65
2022/04/09 06:59:58;;;;;;;5.47;2.43;;;4.60;1.00;;;;;;5033976;28;20402;-64
2022/04/09 07:02:24;;;;;;;3.93;1.97;;;4.70;1.00;;;;;;5034488;28;20478;-64
2022/04/09 07:04:50;;;;;;;2.63;2.40;;;4.80;1.00;;;;;;5034325;28;20901;-67
2022/04/09 07:07:24;;;;;;;10.27;2.53;;;4.80;1.00;;;;;;5034288;28;20396;-66
2022/04/09 07:09:49;;;;;;;4.93;2.73;;;5.00;1.00;;;;;;5033601;28;20426;-65
2022/04/09 07:12:16;;;;;;;3.20;2.03;;;5.00;1.00;;;;;;5034218;28;20444;-65
2022/04/09 07:14:42;;;;;;;1.93;1.83;;;5.00;1.00;;;;;;5034547;28;20218;-64
2022/04/09 07:17:08;;;;;;;3.43;2.20;;;5.00;1.00;;;;;;5034299;28;20458;-64
2022/04/09 07:19:34;;;;;;;4.23;2.00;;;4.80;1.00;;;;;;5033429;28;20431;-65
2022/04/09 07:21:59;;;;;;;3.00;1.70;;;4.80;1.00;;;;;;5034108;28;20783;-65
2022/04/09 07:24:25;;;;;;;8.83;2.37;;;4.80;1.00;;;;;;5034387;28;20202;-64
2022/04/09 07:26:50;;;;;;;2.43;2.23;;;4.70;1.00;;;;;;5034221;28;20184;-65
2022/04/09 07:29:17;;;;;;;2.40;1.70;;;4.70;1.00;;;;;;5033497;28;20251;-67
2022/04/09 07:31:42;;;;;;;2.80;1.70;;;4.70;1.00;;;;;;5033700;28;20195;-68
2022/04/09 07:34:08;;;;;;;2.27;1.93;;;4.70;1.00;;;;;;5034034;28;20414;-67
2022/04/09 07:36:34;;;;;;;2.70;1.50;;;4.60;1.00;;;;;;5034124;28;20181;-64
2022/04/09 07:38:59;;;;;;;1.80;1.70;;;4.60;1.00;;;;;;5033375;28;20172;-64
2022/04/09 07:41:25;;;;;;;2.57;2.03;;;4.70;1.00;;;;;;5032785;28;20220;-67
2022/04/09 07:43:51;;;;;;;4.83;2.20;;;4.90;1.00;;;;;;5033767;28;20280;-68
2022/04/09 07:46:17;;;;;;;1.90;1.67;;;5.10;1.00;;;;;;5033773;28;21034;-64
2022/04/09 07:48:42;;;;;;;2.80;1.80;;;5.30;1.00;;;;;;5033069;28;20659;-67
2022/04/09 07:51:08;;;;;;;1.57;1.47;;;5.50;1.00;;;;;;5033597;28;20208;-65
2022/04/09 07:53:33;;;;;;;2.20;2.03;;;5.60;1.00;;;;;;5033791;28;20181;-64
2022/04/09 07:55:59;;;;;;;2.70;1.80;;;5.50;1.00;;;;;;5033480;28;20177;-65
2022/04/09 07:58:25;;;;;;;2.23;2.03;;;5.60;1.00;;;;;;5033988;28;20179;-67
2022/04/09 08:00:50;;;;;;;2.13;1.90;;;5.70;1.00;;;;;;5033151;28;20251;-64
2022/04/09 08:03:16;;;;;;;3.27;1.83;;;5.60;1.00;;;;;;5033590;28;20584;-64
2022/04/09 08:05:43;;;;;;;3.93;2.23;;;5.70;1.00;;;;;;5033678;28;20550;-67
2022/04/09 08:08:09;;;;;;;4.87;2.20;;;5.70;1.00;;;;;;5032846;28;20183;-67
2022/04/09 08:10:37;;;;;;;2.10;2.00;;;5.90;1.00;;;;;;5032614;28;20497;-67
2022/04/09 08:13:03;;;;;;;5.73;2.00;;;6.00;1.00;;;;;;5033358;28;20195;-67
2022/04/09 08:15:29;;;;;;;4.10;2.03;;;6.20;1.00;;;;;;5033461;28;20490;-65
2022/04/09 08:17:56;;;;;;;10.97;2.17;;;6.40;1.00;;;;;;5033391;28;20489;-65
2022/04/09 08:20:22;;;;;;;2.27;1.90;;;6.50;1.00;;;;;;5032790;28;20527;-68
2022/04/09 08:22:49;;;;;;;4.90;2.57;;;6.60;1.00;;;;;;5033306;28;20422;-67
2022/04/09 08:25:15;;;;;;;3.33;1.93;;;6.80;1.00;;;;;;5033341;28;20403;-64
2022/04/09 08:27:42;;;;;;;2.73;1.90;;;6.80;1.00;;;;;;5032211;28;20926;-67
2022/04/09 08:30:10;;;;;;;4.27;2.40;;;6.80;1.00;;;;;;5032440;28;20910;-66
2022/04/09 08:32:36;;;;;;;12.50;2.40;;;6.80;1.00;;;;;;5033209;28;20429;-64
2022/04/09 08:35:02;;;;;;;2.30;2.10;;;7.00;1.00;;;;;;5033332;28;20410;-67
2022/04/09 08:37:28;;;;;;;3.13;1.93;;;7.10;1.00;;;;;;5033210;28;20409;-67
2022/04/09 08:39:55;;;;;;;2.23;2.03;;;7.20;1.00;;;;;;5032355;28;20903;-65
2022/04/09 08:42:21;;;;;;;2.27;2.17;;;7.20;1.00;;;;;;5031667;28;20657;-67
2022/04/09 08:44:50;;;;;;;4.20;2.43;;;7.20;1.00;;;;;;5033222;28;20441;-67
2022/04/09 08:47:16;;;;;;;3.00;2.67;;;7.10;1.00;;;;;;5033108;28;20402;-64
2022/04/09 08:49:47;;;;;;;3.50;2.27;;;7.10;1.00;;;;;;5031104;28;20413;-67
2022/04/09 08:52:14;;;;;;;2.50;1.87;;;7.20;1.00;;;;;;5032895;28;20438;-65
2022/04/09 08:54:43;;;;;;;6.73;2.73;;;7.30;1.00;;;;;;5031734;28;20457;-67
2022/04/09 08:57:09;;;;;;;1.90;1.80;;;7.20;1.00;;;;;;5033267;28;20413;-64
2022/04/09 08:59:35;;;;;;;3.10;2.17;;;7.40;1.00;;;;;;5032417;28;20997;-64
2022/04/09 09:02:02;;;;;;;8.07;2.20;;;7.40;1.00;;;;;;5032691;28;20517;-64
2022/04/09 09:04:28;;;;;;;5.73;2.27;;;7.40;1.00;;;;;;5032676;28;20525;-65
2022/04/09 09:06:54;;;;;;;7.07;1.80;;;7.60;1.00;;;;;;5033068;28;20514;-65
2022/04/09 09:09:27;;;;;;;3.73;2.30;;;7.90;1.00;;;;;;5032177;28;20433;-65
2022/04/09 09:11:53;;;;;;;2.17;2.07;;;8.10;1.00;;;;;;5032830;28;20286;-65
2022/04/09 09:14:36;;;;;;;4.07;2.20;;;8.00;1.00;;;;;;5032874;28;20406;-67
2022/04/09 09:17:02;;;;;;;4.60;1.80;;;8.10;1.00;;;;;;5032776;28;20399;-65
2022/04/09 09:19:45;;;;;;;3.27;2.07;;;8.30;1.00;;;;;;5034377;28;20399;-65
2022/04/09 09:22:11;;;;;;;13.60;2.83;;;8.50;1.00;;;;;;5036379;28;20422;-68
2022/04/09 09:24:37;;;;;;;6.90;4.83;;;8.80;1.00;;;;;;5036343;28;20402;-64
2022/04/09 09:27:05;;;;;;;5.40;1.90;;;8.70;99.90;;;;;;5036275;28;20541;-68
2022/04/09 09:29:33;;;;;;;6.20;2.27;;;9.00;99.90;;;;;;5035696;28;20416;-64
2022/04/09 09:32:01;;;;;;;5.40;1.77;;;9.00;99.90;;;;;;5036041;28;20477;-64
2022/04/09 09:34:28;;;;;;;1.63;1.53;;;9.30;99.90;;;;;;5036133;28;20490;-68
2022/04/09 09:36:54;;;;;;;3.07;1.80;;;9.60;99.90;;;;;;5035980;28;20415;-64
2022/04/09 09:39:22;;;;;;;10.40;2.10;;;10.00;99.90;;;;;;5035468;28;20919;-68
2022/04/09 09:42:04;;;;;;;2.80;1.70;;;10.30;99.90;;;;;;5036214;28;20778;-64
2022/04/09 09:44:34;;;;;;;2.23;1.50;;;10.50;99.90;;;;;;5035979;28;20445;-65
2022/04/09 09:47:08;;;;;;;1.83;1.73;;;10.30;99.90;;;;;;5035970;28;20409;-68
2022/04/09 09:49:38;;;;;;;3.13;1.67;;;9.70;99.90;;;;;;5035626;28;20467;-68
2022/04/09 09:52:09;;;;;;;2.97;2.77;;;8.80;99.90;;;;;;5036003;28;20472;-69
2022/04/09 09:55:00;;;;;;;2.03;1.83;;;8.20;99.90;;;;;;5035889;28;20767;-67
2022/04/09 09:57:28;;;;;;;1.60;1.50;;;7.40;99.90;;;;;;5036223;28;20756;-63
2022/04/09 09:59:59;;;;;;;2.20;2.10;;;7.00;99.90;;;;;;5035220;28;20447;-68
2022/04/09 10:02:25;;;;;;;2.53;2.43;;;6.40;99.90;;;;;;5034405;28;20471;-67
2022/04/09 10:04:52;;;;;;;3.50;2.87;;;6.40;99.90;;;;;;5035771;28;20401;-69
2022/04/09 10:07:19;;;;;;;3.00;2.80;;;6.90;99.90;;;;;;5035787;28;20922;-66
2022/04/09 10:09:45;;;;;;;3.10;2.80;;;7.30;99.90;;;;;;5034867;28;20970;-67
2022/04/09 10:12:20;;;;;;;5.87;1.70;;;7.30;99.90;;;;;;5035656;28;20480;-68
2022/04/09 10:14:59;;;;;;;1.53;1.43;;;7.50;99.90;;;;;;5035539;28;20409;-67
2022/04/09 10:17:27;;;;;;;2.10;1.90;;;7.70;99.90;;;;;;5035557;28;20855;-67
2022/04/09 10:19:57;;;;;;;1.70;1.60;;;7.60;99.90;;;;;;5034787;28;20423;-67
2022/04/09 10:22:34;;;;;;;2.67;1.63;;;7.50;99.90;;;;;;5035380;28;20418;-63
2022/04/09 10:25:03;;;;;;;6.67;1.93;;;7.30;99.90;;;;;;5035474;28;20817;-68
2022/04/09 10:27:39;;;;;;;1.53;1.43;;;7.20;99.90;;;;;;5035345;28;20386;-67
2022/04/09 10:30:24;;;;;;;1.70;1.60;;;7.00;99.90;;;;;;5033686;28;20395;-68
2022/04/09 10:32:57;;;;;;;3.03;1.67;;;6.60;99.90;;;;;;5035136;28;20915;-66
2022/04/09 10:35:38;;;;;;;8.93;2.33;;;6.80;99.90;;;;;;5035065;28;20417;-67
2022/04/09 10:38:07;;;;;;;1.87;1.60;;;6.90;99.90;;;;;;5035122;28;20930;-67
2022/04/09 10:40:56;;;;;;;2.73;1.67;;;8.00;99.90;;;;;;5034381;28;20434;-66
2022/04/09 10:43:22;;;;;;;1.50;1.40;;;9.00;99.90;;;;;;5034684;28;20437;-68
2022/04/09 10:46:06;;;;;;;2.30;1.77;;;9.70;99.90;;;;;;5034916;28;20399;-64
2022/04/09 10:48:36;;;;;;;2.43;1.43;;;10.40;99.90;;;;;;5032851;28;20168;-64
2022/04/09 10:51:07;;;;;;;5.17;2.20;;;11.10;99.90;;;;;;5034663;28;20442;-65
2022/04/09 10:53:38;;;;;;;2.50;2.30;;;11.40;99.90;;;;;;5034707;28;20435;-64
2022/04/09 10:56:32;;;;;;;6.77;4.13;;;11.70;99.90;;;;;;5034657;28;20409;-68
2022/04/09 10:59:18;;;;;;;1.50;1.40;;;11.40;99.90;;;;;;5033957;28;20785;-68
2022/04/09 11:01:47;;;;;;;4.60;2.37;;;10.30;99.90;;;;;;5034671;28;20788;-64
2022/04/09 11:04:28;;;;;;;2.80;1.60;;;8.80;99.90;;;;;;5034759;28;20417;-68
2022/04/09 11:07:14;;;;;;;2.53;2.10;;;7.60;99.90;;;;;;5034657;28;20901;-64
2022/04/09 11:09:56;;;;;;;2.70;2.07;;;6.90;99.90;;;;;;5033769;28;20794;-65
2022/04/09 11:12:29;;;;;;;3.40;2.40;;;6.40;99.90;;;;;;5034318;28;20767;-65
2022/04/09 11:14:55;;;;;;;5.80;2.20;;;5.80;99.90;;;;;;5034413;28;20391;-64
2022/04/09 11:17:29;;;;;;;4.07;2.47;;;5.40;99.90;;;;;;5034289;28;20393;-65
2022/04/09 11:19:56;;;;;;;2.03;1.90;;;5.20;99.90;;;;;;5033463;28;20527;-65
2022/04/09 11:22:33;;;;;;;2.10;2.00;;;5.20;99.90;;;;;;5034027;28;20413;-66
2022/04/09 11:24:59;;;;;;;4.03;2.93;;;5.20;99.90;;;;;;5033983;28;20483;-68
2022/04/09 11:27:27;;;;;;;1.97;1.77;;;5.50;99.90;;;;;;5033950;28;20872;-70
2022/04/09 11:29:54;;;;;;;3.87;1.77;;;5.60;99.90;;;;;;5033174;28;20799;-65
2022/04/09 11:32:22;;;;;;;5.97;2.53;;;6.10;99.90;;;;;;5033904;28;20425;-69
2022/04/09 11:34:52;;;;;;;2.20;2.07;;;7.50;99.90;;;;;;5033880;28;20398;-68
2022/04/09 11:37:18;;;;;;;3.30;2.03;;;8.70;99.90;;;;;;5033929;28;20883;-69
2022/04/09 11:39:46;;;;;;;3.50;2.47;;;9.70;99.90;;;;;;5033111;28;20404;-65
2022/04/09 11:42:12;;;;;;;4.40;2.37;;;10.60;99.90;;;;;;5033786;28;20471;-69
2022/04/09 11:44:41;;;;;;;9.60;2.33;;;11.60;99.90;;;;;;5033588;28;20392;-69
2022/04/09 11:47:18;;;;;;;7.50;2.50;;;12.20;99.90;;;;;;5033780;28;20733;-65
2022/04/09 11:49:45;;;;;;;8.73;2.53;;;12.20;99.90;;;;;;5032933;28;20379;-66
2022/04/09 11:52:11;;;;;;;4.60;1.87;;;12.60;99.90;;;;;;5033510;28;20534;-66
2022/04/09 11:54:39;;;;;;;3.27;2.20;;;12.80;99.90;;;;;;5032399;28;20421;-66
2022/04/09 11:57:10;;;;;;;4.73;1.70;;;12.40;99.90;;;;;;5033710;28;20381;-66
2022/04/09 11:59:36;;;;;;;4.77;2.37;;;11.60;99.90;;;;;;5032856;28;20444;-66
2022/04/09 12:02:03;;;;;;;5.23;2.40;;;10.30;99.90;;;;;;5032257;28;20499;-70
2022/04/09 12:04:35;;;;;;;11.50;2.80;;;9.20;99.90;;;;;;5033682;28;20402;-68
2022/04/09 12:07:03;;;;;;;5.57;2.40;;;8.30;99.90;;;;;;5033566;28;20426;-69
2022/04/09 12:09:30;;;;;;;6.20;2.37;;;8.00;99.90;;;;;;5032563;28;20400;-65
2022/04/09 12:12:00;;;;;;;3.53;2.53;;;8.30;99.90;;;;;;5033178;28;20517;-65
2022/04/09 12:14:27;;;;;;;7.90;2.73;;;8.90;99.90;;;;;;5033437;28;20411;-65
2022/04/09 12:16:53;;;;;;;7.53;3.20;;;9.10;99.90;;;;;;5033458;28;20392;-69
2022/04/09 12:19:29;;;;;;;8.07;2.80;;;8.70;99.90;;;;;;5032836;28;20557;-68
2022/04/09 12:21:55;;;;;;;4.47;1.90;;;8.20;99.90;;;;;;5033312;28;20414;-68
2022/04/09 12:24:21;;;;;;;4.80;2.67;;;8.00;99.90;;;;;;5033390;28;20524;-68
2022/04/09 12:26:55;;;;;;;4.47;2.30;;;8.10;99.90;;;;;;5033358;28;20413;-65
2022/04/09 12:29:23;;;;;;;9.10;2.73;;;9.00;99.90;;;;;;5032776;28;20163;-65
2022/04/09 12:31:51;;;;;;;6.70;2.70;;;10.00;99.90;;;;;;5033168;28;20460;-68
2022/04/09 12:34:20;;;;;;;5.17;2.07;;;10.90;99.90;;;;;;5033215;28;20412;-65
2022/04/09 12:37:06;;;;;;;4.60;2.43;;;11.70;99.90;;;;;;5033412;28;20369;-68
2022/04/09 12:39:40;;;;;;;9.33;3.20;;;12.30;99.90;;;;;;5032495;28;20425;-68
2022/04/09 12:42:06;;;;;;;7.20;2.60;;;12.90;99.90;;;;;;5033027;28;20410;-67
2022/04/09 12:44:36;;;;;;;8.87;2.17;;;13.50;99.90;;;;;;5031893;28;20858;-65
2022/04/09 12:47:03;;;;;;;9.03;3.67;;;13.30;99.90;;;;;;5033283;28;20429;-64
2022/04/09 12:49:34;;;;;;;12.53;3.23;;;12.60;99.90;;;;;;5032506;28;20406;-68
2022/04/09 12:52:01;;;;;;;10.87;3.87;;;11.50;99.90;;;;;;5032972;28;20476;-65
2022/04/09 12:54:28;;;;;;;9.67;2.80;;;10.20;99.90;;;;;;5035463;28;20459;-68
2022/04/09 12:56:54;;;;;;;8.40;2.43;;;10.00;99.90;;;;;;5037138;28;20456;-64
2022/04/09 12:59:20;;;;;;;5.87;1.73;;;11.70;99.90;;;;;;5036421;28;20876;-66
2022/04/09 13:01:47;;;;;;;3.43;1.67;;;13.40;99.90;;;;;;5036870;28;20405;-70
2022/04/09 13:04:12;;;;;;;5.90;2.53;;;13.70;99.90;;;;;;5036844;28;20195;-65
2022/04/09 13:06:40;;;;;;;6.70;2.13;;;13.30;99.90;;;;;;5036999;28;20434;-71